Time;durP1;ratioP1;P1;durP2;ratioP2;P2;SDS_P1;SDS_P2;PMS_P1;PMS_P2;Temp;Humidity;BMP_temperature;BMP_pressure;BME280_temperature;BME280_humidity;BME280_pressure;Samples;Min_cycle;Max_cycle;Signal;HPM_P1;HPM_P2
2022/03/21 00:02:25;;;;;;;69.20;54.90;;;4.90;99.90;;;;;;5028883;28;20046;-68
2022/03/21 00:04:51;;;;;;;60.70;51.63;;;4.90;99.90;;;;;;5028669;28;20147;-68
2022/03/21 00:07:18;;;;;;;62.60;50.88;;;5.00;99.90;;;;;;4993621;28;20053;-68
2022/03/21 00:09:44;;;;;;;65.80;53.55;;;5.00;99.90;;;;;;4992937;28;20363;-68
2022/03/21 00:12:13;;;;;;;77.97;60.35;;;5.00;99.90;;;;;;5012017;28;20060;-68
2022/03/21 00:14:42;;;;;;;87.07;66.50;;;5.00;99.90;;;;;;4993659;28;20045;-68
2022/03/21 00:17:09;;;;;;;75.57;60.20;;;5.00;99.90;;;;;;4995449;28;20112;-68
2022/03/21 00:19:35;;;;;;;81.90;63.08;;;5.00;99.90;;;;;;4998298;28;20054;-68
2022/03/21 00:22:01;;;;;;;66.95;53.85;;;5.10;99.90;;;;;;4998563;28;20042;-68
2022/03/21 00:24:27;;;;;;;65.47;53.13;;;5.00;99.90;;;;;;4995612;28;20068;-68
2022/03/21 00:26:52;;;;;;;64.30;54.42;;;5.10;99.90;;;;;;4994916;28;20125;-68
2022/03/21 00:29:18;;;;;;;66.55;52.92;;;5.10;99.90;;;;;;4995153;28;20100;-68
2022/03/21 00:31:44;;;;;;;67.75;52.90;;;5.00;99.90;;;;;;4993623;28;20386;-68
2022/03/21 00:34:10;;;;;;;71.82;54.30;;;5.00;99.90;;;;;;4998583;28;20125;-68
2022/03/21 00:36:35;;;;;;;67.70;53.97;;;5.00;99.90;;;;;;5029895;28;20037;-68
2022/03/21 00:39:02;;;;;;;68.93;55.10;;;5.00;99.90;;;;;;4994936;28;20046;-68
2022/03/21 00:41:31;;;;;;;71.68;58.10;;;5.00;99.90;;;;;;5023316;28;20044;-68
2022/03/21 00:43:58;;;;;;;72.05;56.03;;;5.00;99.90;;;;;;4995270;28;20135;-68
2022/03/21 00:46:23;;;;;;;66.65;55.08;;;5.00;99.90;;;;;;5026454;28;20054;-68
2022/03/21 00:48:49;;;;;;;69.65;54.97;;;5.00;99.90;;;;;;4997068;28;20048;-68
2022/03/21 00:51:14;;;;;;;65.13;52.67;;;5.00;99.90;;;;;;4995348;28;20161;-68
2022/03/21 00:53:40;;;;;;;67.93;54.65;;;5.00;99.90;;;;;;4996872;28;20124;-68
2022/03/21 00:56:06;;;;;;;62.20;51.20;;;5.00;99.90;;;;;;4993652;28;20049;-68
2022/03/21 00:58:31;;;;;;;63.65;51.67;;;5.00;99.90;;;;;;4994400;28;20047;-68
2022/03/21 01:00:57;;;;;;;69.32;54.10;;;5.00;99.90;;;;;;4994970;28;20092;-68
2022/03/21 01:03:23;;;;;;;67.95;53.35;;;5.00;99.90;;;;;;4998679;28;20095;-68
2022/03/21 01:05:48;;;;;;;63.25;49.92;;;5.00;99.90;;;;;;4997280;28;20046;-68
2022/03/21 01:08:14;;;;;;;64.82;51.58;;;5.00;99.90;;;;;;4996017;28;20188;-68
2022/03/21 01:10:40;;;;;;;63.25;50.85;;;5.00;99.90;;;;;;4991726;28;20034;-68
2022/03/21 01:13:06;;;;;;;64.60;51.30;;;5.00;99.90;;;;;;4995953;28;20379;-68
2022/03/21 01:15:32;;;;;;;64.60;51.83;;;5.00;99.90;;;;;;5001531;28;20100;-68
2022/03/21 01:17:58;;;;;;;62.92;50.55;;;5.00;99.90;;;;;;5003211;28;20049;-68
2022/03/21 01:20:24;;;;;;;64.20;49.08;;;5.00;99.90;;;;;;4997343;28;20513;-67
2022/03/21 01:22:51;;;;;;;65.47;50.88;;;5.00;99.90;;;;;;5026334;28;20054;-68
2022/03/21 01:25:18;;;;;;;60.53;49.85;;;5.00;99.90;;;;;;4998473;28;20046;-66
2022/03/21 01:27:43;;;;;;;60.97;48.85;;;5.00;99.90;;;;;;4997469;28;20038;-66
2022/03/21 01:30:11;;;;;;;57.70;47.90;;;5.00;99.90;;;;;;4998981;28;20490;-68
2022/03/21 01:32:37;;;;;;;57.78;46.70;;;5.00;99.90;;;;;;5000032;28;20053;-68
2022/03/21 01:35:04;;;;;;;59.25;47.80;;;5.00;99.90;;;;;;5000790;28;20043;-68
2022/03/21 01:37:31;;;;;;;55.15;47.08;;;4.90;99.90;;;;;;4998736;28;20085;-68
2022/03/21 01:39:56;;;;;;;54.03;43.30;;;4.90;99.90;;;;;;5003998;28;20049;-68
2022/03/21 01:42:22;;;;;;;57.60;46.30;;;5.00;99.90;;;;;;5000654;28;20042;-68
2022/03/21 01:44:52;;;;;;;55.67;45.65;;;4.80;99.90;;;;;;5029923;28;20046;-68
2022/03/21 01:47:18;;;;;;;56.20;44.53;;;4.90;99.90;;;;;;4997400;28;20037;-68
2022/03/21 01:49:45;;;;;;;53.65;44.25;;;4.80;99.90;;;;;;4997377;28;20046;-68
2022/03/21 01:52:11;;;;;;;49.85;42.45;;;4.80;99.90;;;;;;4994903;28;20058;-68
2022/03/21 01:57:21;;;;;;;;;;;4.60;99.90;;;;;;5001297;28;20100;-68
2022/03/21 01:59:48;;;;;;;51.55;41.50;;;4.50;99.90;;;;;;5001819;28;19924;-68
2022/03/21 02:02:15;;;;;;;58.85;43.25;;;4.40;99.90;;;;;;5003160;28;20133;-68
2022/03/21 02:04:41;;;;;;;51.90;41.30;;;4.30;99.90;;;;;;4997674;28;20069;-68
2022/03/21 02:07:07;;;;;;;48.05;39.78;;;4.20;99.90;;;;;;4995303;28;20046;-68
2022/03/21 02:09:33;;;;;;;60.17;44.05;;;4.10;99.90;;;;;;4996481;28;20031;-68
2022/03/21 02:11:59;;;;;;;57.95;42.78;;;4.10;99.90;;;;;;4988311;28;20050;-68
2022/03/21 02:14:24;;;;;;;61.60;46.08;;;4.00;99.90;;;;;;5001676;28;20096;-68
2022/03/21 02:16:50;;;;;;;54.70;43.45;;;3.90;99.90;;;;;;5027864;28;20048;-68
2022/03/21 02:19:16;;;;;;;59.10;45.17;;;3.90;99.90;;;;;;5025931;28;20116;-68
2022/03/21 02:21:41;;;;;;;60.25;43.90;;;3.80;99.90;;;;;;5030330;28;20041;-68
2022/03/21 02:24:15;;;;;;;47.78;39.20;;;3.70;99.90;;;;;;4996255;28;20030;-67
2022/03/21 02:26:41;;;;;;;51.33;39.42;;;3.70;99.90;;;;;;4996950;28;20038;-66
2022/03/21 02:29:08;;;;;;;55.75;41.78;;;3.60;99.90;;;;;;5000792;28;20734;-66
2022/03/21 02:31:35;;;;;;;44.80;35.65;;;3.60;99.90;;;;;;5031429;28;20501;-66
2022/03/21 02:34:01;;;;;;;52.47;38.45;;;3.60;99.90;;;;;;5000751;28;20044;-66
2022/03/21 02:36:27;;;;;;;50.25;36.65;;;3.50;99.90;;;;;;4997481;28;20392;-66
2022/03/21 02:38:58;;;;;;;49.50;35.97;;;3.50;99.90;;;;;;4997502;28;20058;-67
2022/03/21 02:41:23;;;;;;;48.42;35.85;;;3.40;99.90;;;;;;5000373;28;20045;-67
2022/03/21 02:43:58;;;;;;;43.38;32.55;;;3.40;99.90;;;;;;4996528;28;20466;-67
2022/03/21 02:46:24;;;;;;;;;;;3.40;99.90;;;;;;4999846;28;20046;-67
2022/03/21 02:48:52;;;;;;;40.03;28.15;;;3.40;99.90;;;;;;4994775;28;19923;-67
2022/03/21 02:51:21;;;;;;;41.25;28.33;;;3.30;99.90;;;;;;4994393;28;20044;-66
2022/03/21 02:53:51;;;;;;;39.35;28.35;;;3.30;99.90;;;;;;5001857;28;20043;-66
2022/03/21 02:56:17;;;;;;;34.72;25.20;;;3.40;99.90;;;;;;4996189;28;20046;-66
2022/03/21 02:58:43;;;;;;;33.67;24.65;;;3.40;99.90;;;;;;4996233;28;20097;-66
2022/03/21 03:01:15;;;;;;;35.65;25.33;;;3.40;99.90;;;;;;4993429;28;20112;-66
2022/03/21 03:03:42;;;;;;;36.60;23.95;;;3.30;99.90;;;;;;4995005;28;20328;-66
2022/03/21 03:06:08;;;;;;;37.35;23.50;;;3.40;99.90;;;;;;4998201;28;20038;-67
2022/03/21 03:08:34;;;;;;;30.42;21.77;;;3.40;99.90;;;;;;5013803;28;20034;-66
2022/03/21 03:11:00;;;;;;;32.80;22.23;;;3.40;99.90;;;;;;4998038;28;20057;-66
2022/03/21 03:13:26;;;;;;;28.27;20.95;;;3.40;99.90;;;;;;5001926;28;20521;-66
2022/03/21 03:15:52;;;;;;;30.15;21.58;;;3.40;99.90;;;;;;4996948;28;20041;-67
2022/03/21 03:18:17;;;;;;;35.58;23.58;;;3.40;99.90;;;;;;4999437;28;20034;-66
2022/03/21 03:20:55;;;;;;;26.75;20.85;;;3.30;99.90;;;;;;4998267;28;20036;-66
2022/03/21 03:23:23;;;;;;;26.88;19.13;;;3.30;99.90;;;;;;4998654;28;20046;-66
2022/03/21 03:25:57;;;;;;;25.60;18.10;;;3.20;99.90;;;;;;4993146;28;20426;-66
2022/03/21 03:28:22;;;;;;;26.98;19.42;;;3.10;99.90;;;;;;4999738;28;20069;-67
2022/03/21 03:30:49;;;;;;;27.88;18.88;;;3.00;99.90;;;;;;5025800;28;20136;-67
2022/03/21 03:33:15;;;;;;;29.58;19.58;;;3.00;99.90;;;;;;4994453;28;20046;-66
2022/03/21 03:35:40;;;;;;;22.77;18.80;;;3.00;99.90;;;;;;4990850;28;20057;-66
2022/03/21 03:38:07;;;;;;;27.00;18.75;;;2.90;99.90;;;;;;4997362;28;20057;-66
2022/03/21 03:40:32;;;;;;;30.20;20.20;;;2.90;99.90;;;;;;4996518;28;20045;-66
2022/03/21 03:42:58;;;;;;;23.83;17.90;;;2.80;99.90;;;;;;4998232;28;20179;-67
2022/03/21 03:45:25;;;;;;;22.45;16.92;;;2.80;99.90;;;;;;4995540;28;20038;-67
2022/03/21 03:47:52;;;;;;;21.10;16.52;;;2.70;99.90;;;;;;5026737;28;20046;-67
2022/03/21 03:50:18;;;;;;;24.15;17.92;;;2.70;99.90;;;;;;4997493;28;20347;-67
2022/03/21 03:52:46;;;;;;;25.20;17.88;;;2.60;99.90;;;;;;5000112;28;20042;-67
2022/03/21 03:55:13;;;;;;;26.90;19.02;;;2.50;99.90;;;;;;5001977;28;20185;-67
2022/03/21 03:57:39;;;;;;;23.85;17.25;;;2.50;99.90;;;;;;4995259;28;21274;-67
2022/03/21 04:00:07;;;;;;;25.58;18.73;;;2.40;99.90;;;;;;4996687;28;20042;-67
2022/03/21 04:03:44;;;;;;;20.90;16.48;;;2.40;99.90;;;;;;5022055;28;20128;-67
2022/03/21 04:05:19;;;;;;;23.75;18.25;;;2.30;99.90;;;;;;5025569;28;20269;-67
2022/03/21 04:07:45;;;;;;;25.42;17.98;;;2.30;99.90;;;;;;4994174;28;20518;-67
2022/03/21 04:10:11;;;;;;;22.48;16.60;;;2.20;99.90;;;;;;5000449;28;20057;-67
2022/03/21 04:12:37;;;;;;;24.02;17.35;;;2.20;99.90;;;;;;4996682;28;20050;-67
2022/03/21 04:15:03;;;;;;;23.80;17.45;;;2.10;99.90;;;;;;4995617;28;20157;-67
2022/03/21 04:17:29;;;;;;;27.23;18.42;;;2.10;99.90;;;;;;4995817;28;20080;-67
2022/03/21 04:19:55;;;;;;;22.70;16.75;;;2.10;99.90;;;;;;5031040;28;20117;-67
2022/03/21 04:22:20;;;;;;;20.90;15.35;;;2.00;99.90;;;;;;4993884;28;20037;-67
2022/03/21 04:24:46;;;;;;;26.33;17.83;;;2.00;99.90;;;;;;4993847;28;20404;-67
2022/03/21 04:27:12;;;;;;;22.58;15.90;;;1.90;99.90;;;;;;5022791;28;20572;-67
2022/03/21 04:29:37;;;;;;;25.42;17.80;;;1.90;99.90;;;;;;4994093;28;20354;-66
2022/03/21 04:32:03;;;;;;;23.02;16.65;;;1.90;99.90;;;;;;5023609;28;20149;-67
2022/03/21 04:34:29;;;;;;;25.52;17.75;;;1.80;99.90;;;;;;4993807;28;20088;-67
2022/03/21 04:36:55;;;;;;;23.50;17.08;;;1.80;99.90;;;;;;5012101;28;20054;-67
2022/03/21 04:39:20;;;;;;;21.10;16.60;;;1.80;99.90;;;;;;5002169;28;20454;-67
2022/03/21 04:41:46;;;;;;;27.85;17.48;;;1.80;99.90;;;;;;5001258;28;20074;-67
2022/03/21 04:44:12;;;;;;;20.23;16.75;;;1.70;99.90;;;;;;5000212;28;20056;-67
2022/03/21 04:46:38;;;;;;;23.48;16.35;;;1.80;99.90;;;;;;4997233;28;20083;-67
2022/03/21 04:49:03;;;;;;;28.83;17.98;;;1.80;99.90;;;;;;4995667;28;20045;-67
2022/03/21 04:51:29;;;;;;;22.17;16.17;;;1.70;99.90;;;;;;4999386;28;20072;-67
2022/03/21 04:53:54;;;;;;;27.30;17.30;;;1.80;99.90;;;;;;4999254;28;20091;-67
2022/03/21 04:56:20;;;;;;;31.63;18.52;;;1.70;99.90;;;;;;5005400;28;20050;-66
2022/03/21 04:58:46;;;;;;;24.27;16.42;;;1.70;99.90;;;;;;4998819;28;20042;-67
2022/03/21 05:01:11;;;;;;;26.27;16.38;;;1.70;99.90;;;;;;4997249;28;20038;-67
2022/03/21 05:03:37;;;;;;;22.27;16.25;;;1.70;99.90;;;;;;4992194;28;20045;-67
2022/03/21 05:06:03;;;;;;;20.75;15.52;;;1.60;99.90;;;;;;4994207;28;20061;-67
2022/03/21 05:08:29;;;;;;;20.45;14.93;;;1.60;99.90;;;;;;4992058;28;20042;-67
2022/03/21 05:10:56;;;;;;;22.60;16.23;;;1.50;99.90;;;;;;4996327;28;20054;-67
2022/03/21 05:13:22;;;;;;;24.83;17.15;;;1.50;99.90;;;;;;4999487;28;20139;-67
2022/03/21 05:15:47;;;;;;;25.08;16.52;;;1.50;99.90;;;;;;4998878;28;20148;-67
2022/03/21 05:18:13;;;;;;;20.83;16.60;;;1.50;99.90;;;;;;4997929;28;20035;-67
2022/03/21 05:20:40;;;;;;;21.13;16.10;;;1.50;99.90;;;;;;4994916;28;20466;-67
2022/03/21 05:31:18;;;;;;;25.38;15.57;;;1.40;99.90;;;;;;4999905;28;20096;-67
2022/03/21 05:36:28;;;;;;;21.10;15.27;;;1.40;99.90;;;;;;5000680;28;20096;-67
2022/03/21 05:38:58;;;;;;;21.85;15.68;;;1.30;99.90;;;;;;5000018;28;20413;-67
2022/03/21 05:41:25;;;;;;;21.00;14.70;;;1.30;99.90;;;;;;5028300;28;20046;-67
2022/03/21 05:43:50;;;;;;;20.15;15.32;;;1.30;99.90;;;;;;4998604;28;20050;-67
2022/03/21 05:46:16;;;;;;;26.63;16.90;;;1.30;99.90;;;;;;4998474;28;20050;-67
2022/03/21 05:48:51;;;;;;;20.83;13.93;;;1.30;99.90;;;;;;4997924;28;20117;-67
2022/03/21 05:51:18;;;;;;;22.50;15.55;;;1.30;99.90;;;;;;5026393;28;20050;-67
2022/03/21 05:53:45;;;;;;;27.48;15.60;;;1.30;99.90;;;;;;4997489;28;20433;-67
2022/03/21 05:56:12;;;;;;;18.42;12.38;;;1.30;99.90;;;;;;4998780;28;20038;-67
2022/03/21 05:58:37;;;;;;;65.40;17.25;;;1.40;99.90;;;;;;4998239;28;20038;-67
2022/03/21 06:01:03;;;;;;;33.38;13.77;;;1.40;99.90;;;;;;5024656;28;20042;-67
2022/03/21 06:03:29;;;;;;;60.88;15.98;;;1.40;99.90;;;;;;4999854;28;20330;-67
2022/03/21 06:05:55;;;;;;;33.33;12.75;;;1.40;99.90;;;;;;4996197;28;20073;-67
2022/03/21 06:08:22;;;;;;;40.10;14.55;;;1.40;99.90;;;;;;5002386;28;20153;-67
2022/03/21 06:10:48;;;;;;;194.63;24.20;;;1.40;99.90;;;;;;5001366;28;20050;-67
2022/03/21 06:13:15;;;;;;;120.45;19.45;;;1.50;99.90;;;;;;5004416;28;20057;-67
2022/03/21 06:15:42;;;;;;;45.78;12.90;;;1.50;99.90;;;;;;5017505;28;20119;-67
2022/03/21 06:18:11;;;;;;;38.55;14.05;;;1.50;99.90;;;;;;5000511;28;20108;-67
2022/03/21 06:20:39;;;;;;;43.90;16.75;;;1.60;99.90;;;;;;5003642;28;20038;-67
2022/03/21 06:23:05;;;;;;;25.90;14.40;;;1.60;99.90;;;;;;5036792;28;20097;-67
2022/03/21 06:25:31;;;;;;;19.67;13.90;;;1.60;99.90;;;;;;5003723;28;20046;-67
2022/03/21 06:27:57;;;;;;;24.10;15.45;;;1.70;99.90;;;;;;5000865;28;20049;-68
2022/03/21 06:30:23;;;;;;;27.73;17.35;;;1.70;99.90;;;;;;5031112;28;20497;-67
2022/03/21 06:32:49;;;;;;;23.23;15.85;;;1.80;99.90;;;;;;5000281;28;20050;-67
2022/03/21 06:35:14;;;;;;;27.65;16.73;;;1.90;99.90;;;;;;5033876;28;20033;-67
2022/03/21 06:37:41;;;;;;;20.92;15.55;;;2.00;99.90;;;;;;5001174;28;20125;-67
2022/03/21 06:40:09;;;;;;;22.80;16.55;;;2.10;99.90;;;;;;5033189;28;20049;-67
2022/03/21 06:42:35;;;;;;;24.05;16.98;;;2.20;99.90;;;;;;5031311;28;20088;-66
2022/03/21 06:45:01;;;;;;;24.20;16.63;;;2.30;99.90;;;;;;5031721;28;20046;-66
2022/03/21 06:47:27;;;;;;;22.40;16.25;;;2.50;99.90;;;;;;4996891;28;20046;-67
2022/03/21 06:49:52;;;;;;;20.58;15.57;;;2.60;99.90;;;;;;5000019;28;20043;-67
2022/03/21 06:52:19;;;;;;;27.42;17.05;;;2.70;99.90;;;;;;5036543;28;20038;-67
2022/03/21 06:54:49;;;;;;;27.80;18.08;;;2.80;99.90;;;;;;4993498;28;20086;-67
2022/03/21 06:57:18;;;;;;;21.50;16.42;;;3.00;99.90;;;;;;5006614;28;20445;-67
2022/03/21 06:59:47;;;;;;;21.58;16.00;;;3.20;99.90;;;;;;5003812;28;20532;-67
2022/03/21 07:02:15;;;;;;;23.27;17.17;;;3.30;99.90;;;;;;5002579;28;20045;-67
2022/03/21 07:04:41;;;;;;;25.05;17.58;;;3.50;99.90;;;;;;5003368;28;20065;-67
2022/03/21 07:07:07;;;;;;;20.05;16.67;;;3.80;99.90;;;;;;5007280;28;20038;-67
2022/03/21 07:09:33;;;;;;;23.00;18.38;;;4.10;99.90;;;;;;5009684;28;20038;-67
2022/03/21 07:11:59;;;;;;;25.75;17.58;;;4.50;99.90;;;;;;5018237;28;20096;-67
2022/03/21 07:14:24;;;;;;;20.98;16.42;;;4.60;99.90;;;;;;5041713;28;20050;-67
2022/03/21 07:16:51;;;;;;;23.67;18.35;;;4.70;99.90;;;;;;5006213;28;20040;-67
2022/03/21 07:19:16;;;;;;;26.48;19.25;;;4.90;99.90;;;;;;5036377;28;20038;-67
2022/03/21 07:21:43;;;;;;;22.65;18.52;;;5.00;99.90;;;;;;5003100;28;20095;-67
2022/03/21 07:24:08;;;;;;;24.13;18.30;;;5.20;99.90;;;;;;5000312;28;20474;-67
2022/03/21 07:26:35;;;;;;;20.65;17.92;;;5.60;99.90;;;;;;5004359;28;20077;-67
2022/03/21 07:29:01;;;;;;;21.67;17.65;;;6.40;99.90;;;;;;4998673;28;20070;-67
2022/03/21 07:31:27;;;;;;;20.58;17.38;;;7.30;99.90;;;;;;5002213;28;20042;-67
2022/03/21 07:33:52;;;;;;;18.02;16.08;;;8.20;99.90;;;;;;5007783;28;20130;-67
2022/03/21 07:36:19;;;;;;;20.88;16.33;;;9.10;99.90;;;;;;5006591;28;20626;-68
2022/03/21 07:38:45;;;;;;;19.25;15.27;;;9.60;99.90;;;;;;5009655;28;20054;-68
2022/03/21 07:41:11;;;;;;;18.48;15.15;;;10.20;99.90;;;;;;5005471;28;20097;-68
2022/03/21 07:43:37;;;;;;;20.55;16.38;;;10.70;99.90;;;;;;5002355;28;20133;-69
2022/03/21 07:48:50;;;;;;;18.02;16.13;;;11.90;99.90;;;;;;4993452;28;20056;-68
2022/03/21 07:51:16;;;;;;;17.00;14.50;;;12.50;99.90;;;;;;5001059;28;20038;-68
2022/03/21 07:53:41;;;;;;;17.50;15.65;;;13.10;99.90;;;;;;4997468;28;20470;-67
2022/03/21 07:56:08;;;;;;;18.83;15.02;;;13.80;99.90;;;;;;5034814;28;20038;-68
2022/03/21 07:58:35;;;;;;;17.60;15.00;;;14.40;99.30;;;;;;5037123;28;20042;-68
2022/03/21 08:01:02;;;;;;;17.13;13.77;;;14.90;98.00;;;;;;5002096;28;20041;-69
2022/03/21 08:03:28;;;;;;;18.80;14.75;;;15.30;95.60;;;;;;4999785;28;20037;-69
2022/03/21 08:05:54;;;;;;;17.40;14.35;;;15.70;93.60;;;;;;5002153;28;20115;-69
2022/03/21 08:08:20;;;;;;;16.42;14.68;;;16.10;92.00;;;;;;5002264;28;20030;-69
2022/03/21 08:10:46;;;;;;;16.60;14.68;;;16.40;91.10;;;;;;5001457;28;20052;-69
2022/03/21 08:13:17;;;;;;;16.25;14.50;;;16.70;90.30;;;;;;5033300;28;20555;-67
2022/03/21 08:15:44;;;;;;;16.55;14.38;;;16.90;87.40;;;;;;5002038;28;20042;-68
2022/03/21 08:18:11;;;;;;;18.83;14.27;;;17.20;86.30;;;;;;5002113;28;20042;-68
2022/03/21 08:20:39;;;;;;;16.80;13.30;;;17.20;83.90;;;;;;5003030;28;20038;-68
2022/03/21 08:23:12;;;;;;;16.67;14.35;;;17.40;82.20;;;;;;5006547;28;20485;-69
2022/03/21 08:25:45;;;;;;;17.77;14.45;;;17.40;80.10;;;;;;5006389;28;20133;-70
2022/03/21 08:28:11;;;;;;;16.70;14.00;;;17.60;78.30;;;;;;5039022;28;20048;-69
2022/03/21 08:30:38;;;;;;;18.38;14.25;;;17.90;78.00;;;;;;5006173;28;20053;-68
2022/03/21 08:33:06;;;;;;;16.15;14.43;;;18.00;76.10;;;;;;5000159;28;20046;-68
2022/03/21 08:35:33;;;;;;;14.13;12.65;;;18.20;75.80;;;;;;4995469;28;20045;-68
2022/03/21 08:37:59;;;;;;;15.23;13.48;;;18.40;74.50;;;;;;4998372;28;20050;-68
2022/03/21 08:40:26;;;;;;;17.83;14.10;;;18.70;72.60;;;;;;4994299;28;20056;-68
2022/03/21 08:42:51;;;;;;;17.52;13.40;;;18.80;71.90;;;;;;4999997;28;20510;-68
2022/03/21 08:45:18;;;;;;;14.88;12.95;;;19.00;70.80;;;;;;4995421;28;20364;-69
2022/03/21 08:47:44;;;;;;;15.73;14.13;;;19.20;69.10;;;;;;4998840;28;20042;-68
2022/03/21 08:50:11;;;;;;;16.15;13.57;;;19.40;66.80;;;;;;5027742;28;20124;-68
2022/03/21 08:52:36;;;;;;;13.82;12.52;;;19.40;68.20;;;;;;4999036;28;20057;-69
2022/03/21 08:55:07;;;;;;;14.70;13.23;;;19.70;66.90;;;;;;5002317;28;20370;-69
2022/03/21 08:57:33;;;;;;;14.38;12.80;;;19.80;65.40;;;;;;4999538;28;20033;-69
2022/03/21 08:59:59;;;;;;;16.25;14.40;;;19.80;64.90;;;;;;5001648;28;20043;-69
2022/03/21 09:02:26;;;;;;;15.40;13.88;;;19.90;64.40;;;;;;4995464;28;20065;-69
2022/03/21 09:04:52;;;;;;;15.45;13.85;;;20.00;62.30;;;;;;5003593;28;20361;-69
2022/03/21 09:07:19;;;;;;;17.38;14.25;;;19.90;61.80;;;;;;4996904;28;20115;-69
2022/03/21 09:09:44;;;;;;;15.55;13.98;;;20.00;61.80;;;;;;5005502;28;20060;-70
2022/03/21 09:12:11;;;;;;;16.30;14.40;;;20.30;61.10;;;;;;5000065;28;20046;-68
2022/03/21 09:14:37;;;;;;;15.25;13.40;;;20.40;59.50;;;;;;5004945;28;20046;-69
2022/03/21 09:17:04;;;;;;;17.40;14.45;;;20.60;58.70;;;;;;4993954;28;20031;-69
2022/03/21 09:19:30;;;;;;;15.65;13.93;;;20.90;58.20;;;;;;5004754;28;20037;-69
2022/03/21 09:21:57;;;;;;;15.90;14.10;;;20.90;57.20;;;;;;5014507;28;20395;-69
2022/03/21 09:24:23;;;;;;;16.05;14.45;;;21.00;56.10;;;;;;5005151;28;20120;-69
2022/03/21 09:26:49;;;;;;;17.67;13.93;;;20.90;55.60;;;;;;5001498;28;20045;-69
2022/03/21 09:29:15;;;;;;;16.77;14.32;;;20.80;55.90;;;;;;5005148;28;20046;-69
2022/03/21 09:31:41;;;;;;;15.15;13.52;;;21.00;55.20;;;;;;4998104;28;20487;-69
2022/03/21 09:34:08;;;;;;;17.08;14.02;;;21.00;54.90;;;;;;4993381;28;20045;-69
2022/03/21 09:36:35;;;;;;;16.52;14.82;;;21.20;54.60;;;;;;4998843;28;20077;-69
2022/03/21 09:39:01;;;;;;;16.73;14.52;;;21.20;52.80;;;;;;4997848;28;20049;-70
2022/03/21 09:41:28;;;;;;;16.15;14.50;;;21.20;53.10;;;;;;5004629;28;20583;-70
2022/03/21 09:43:56;;;;;;;19.65;14.63;;;21.20;53.60;;;;;;4997078;28;20557;-70
2022/03/21 09:46:22;;;;;;;17.25;15.63;;;21.20;52.90;;;;;;5002532;28;20046;-70
2022/03/21 09:48:49;;;;;;;18.25;16.38;;;21.20;53.60;;;;;;4999156;28;20044;-70
2022/03/21 09:51:23;;;;;;;18.45;16.52;;;21.30;52.90;;;;;;5007659;28;20037;-70
2022/03/21 09:53:50;;;;;;;19.08;17.27;;;21.40;51.40;;;;;;5005233;28;20528;-70
2022/03/21 09:56:16;;;;;;;19.30;17.30;;;21.10;52.10;;;;;;5004020;28;20431;-70
2022/03/21 09:58:43;;;;;;;20.65;18.65;;;21.10;52.70;;;;;;5004352;28;20430;-70
2022/03/21 10:01:11;;;;;;;19.73;17.63;;;21.10;52.80;;;;;;5036345;28;20107;-70
2022/03/21 10:03:41;;;;;;;20.95;17.80;;;21.20;51.50;;;;;;5002830;28;20046;-71
2022/03/21 10:06:31;;;;;;;19.95;17.88;;;21.10;52.70;;;;;;5006545;28;20516;-70
2022/03/21 10:09:13;;;;;;;22.40;19.05;;;21.30;51.70;;;;;;4986722;28;20115;-70
2022/03/21 10:11:49;;;;;;;21.38;19.08;;;21.50;50.60;;;;;;5003709;28;20068;-70
2022/03/21 10:14:21;;;;;;;20.63;18.50;;;21.60;51.00;;;;;;5039260;28;20054;-70
2022/03/21 10:16:52;;;;;;;20.38;18.27;;;21.50;51.30;;;;;;5002020;28;20478;-70
2022/03/21 10:19:18;;;;;;;20.73;18.52;;;21.70;51.90;;;;;;4997910;28;20038;-70
2022/03/21 10:22:07;;;;;;;22.05;19.98;;;21.80;50.00;;;;;;5002823;28;20112;-70
2022/03/21 10:24:44;;;;;;;21.35;19.00;;;21.80;49.20;;;;;;4999960;28;20066;-71
2022/03/21 10:27:28;;;;;;;20.50;18.45;;;21.80;49.30;;;;;;4999609;28;20038;-71
2022/03/21 10:29:59;;;;;;;20.15;18.02;;;21.70;46.80;;;;;;4994799;28;20046;-70
2022/03/21 10:32:44;;;;;;;19.98;18.02;;;21.70;49.10;;;;;;5003893;28;20030;-70
2022/03/21 10:35:13;;;;;;;19.85;17.75;;;22.00;47.50;;;;;;4998781;28;20532;-70
2022/03/21 10:37:49;;;;;;;19.73;17.83;;;22.10;48.30;;;;;;5008262;28;20128;-70
2022/03/21 10:40:34;;;;;;;21.05;18.73;;;22.20;48.30;;;;;;5016356;28;20130;-71
2022/03/21 10:43:18;;;;;;;19.70;17.77;;;22.40;48.10;;;;;;5005292;28;20034;-71
2022/03/21 10:45:50;;;;;;;20.88;17.48;;;22.70;45.80;;;;;;4997159;28;20065;-71
2022/03/21 10:48:29;;;;;;;19.77;17.95;;;22.50;45.80;;;;;;5001899;28;20057;-71
2022/03/21 10:50:56;;;;;;;20.40;18.23;;;22.30;46.60;;;;;;5002054;28;20046;-71
2022/03/21 10:53:24;;;;;;;19.60;17.70;;;22.20;46.50;;;;;;5003343;28;20568;-70
2022/03/21 10:56:04;;;;;;;19.67;17.63;;;22.20;46.80;;;;;;5003160;28;20100;-70
2022/03/21 10:58:41;;;;;;;20.38;17.58;;;22.20;46.80;;;;;;5004089;28;20042;-70
2022/03/21 11:01:27;;;;;;;20.38;18.27;;;22.20;47.00;;;;;;5001164;28;20057;-70
2022/03/21 11:03:59;;;;;;;20.35;18.30;;;22.20;46.40;;;;;;5032963;28;20120;-69
2022/03/21 11:06:29;;;;;;;20.30;18.27;;;22.10;47.30;;;;;;5001183;28;20042;-68
2022/03/21 11:08:55;;;;;;;19.92;18.02;;;22.10;47.00;;;;;;5002538;28;20075;-68
2022/03/21 11:11:22;;;;;;;20.05;18.15;;;21.90;46.80;;;;;;5027954;28;20169;-68
2022/03/21 11:13:50;;;;;;;20.90;18.77;;;21.90;46.90;;;;;;5000976;28;20054;-68
2022/03/21 11:16:19;;;;;;;19.20;17.30;;;21.70;47.10;;;;;;4996067;28;20054;-68
2022/03/21 11:18:46;;;;;;;20.48;18.38;;;21.70;47.60;;;;;;5002822;28;20026;-68
2022/03/21 11:21:13;;;;;;;21.40;19.20;;;21.60;47.60;;;;;;4999232;28;20542;-68
2022/03/21 11:23:40;;;;;;;21.45;19.33;;;21.60;47.10;;;;;;5003005;28;20526;-68
2022/03/21 11:26:42;;;;;;;22.55;18.88;;;21.60;47.30;;;;;;4997820;28;20052;-68
2022/03/21 11:29:45;;;;;;;21.02;18.85;;;21.70;47.30;;;;;;5003481;28;20056;-69
2022/03/21 11:32:28;;;;;;;19.58;17.58;;;21.60;46.60;;;;;;4998237;28;20489;-68
2022/03/21 11:35:32;;;;;;;20.85;18.55;;;21.60;47.20;;;;;;5000356;28;20058;-68
2022/03/21 11:38:45;;;;;;;20.50;18.30;;;21.60;47.10;;;;;;4998153;28;20054;-67
2022/03/21 11:41:26;;;;;;;20.25;18.33;;;21.80;45.40;;;;;;5004573;28;20134;-68
2022/03/21 11:44:03;;;;;;;20.20;18.08;;;21.90;46.90;;;;;;5001630;28;20482;-67
2022/03/21 11:46:31;;;;;;;18.63;16.85;;;21.80;44.90;;;;;;5004845;28;20073;-67
2022/03/21 11:49:02;;;;;;;19.80;17.88;;;22.10;44.30;;;;;;5007061;28;20137;-68
2022/03/21 11:51:36;;;;;;;20.35;17.67;;;22.00;44.10;;;;;;5004305;28;20038;-68
2022/03/21 11:54:03;;;;;;;20.40;18.38;;;21.90;43.40;;;;;;5007357;28;20061;-68
2022/03/21 11:56:43;;;;;;;21.73;18.20;;;22.00;44.60;;;;;;5002699;28;20073;-68
2022/03/21 11:59:29;;;;;;;20.45;18.40;;;22.30;44.20;;;;;;5029504;28;20138;-68
2022/03/21 12:01:54;;;;;;;18.30;16.25;;;22.20;44.70;;;;;;5022774;28;20618;-68
2022/03/21 12:04:29;;;;;;;20.73;17.95;;;22.20;44.00;;;;;;5005910;28;20125;-68
2022/03/21 12:06:59;;;;;;;19.50;17.40;;;22.40;44.80;;;;;;5000950;28;20053;-68
2022/03/21 12:09:44;;;;;;;20.33;16.33;;;22.70;43.50;;;;;;5006153;28;20426;-68
2022/03/21 12:12:11;;;;;;;19.33;17.23;;;23.10;42.70;;;;;;4997985;28;20041;-68
2022/03/21 12:14:44;;;;;;;19.42;17.17;;;23.30;42.20;;;;;;5004442;28;20533;-68
2022/03/21 12:17:13;;;;;;;21.63;17.30;;;23.60;41.40;;;;;;4995413;28;20049;-68
2022/03/21 12:19:45;;;;;;;19.88;16.92;;;23.80;41.80;;;;;;5036206;28;20287;-69
2022/03/21 12:22:38;;;;;;;18.33;16.40;;;23.80;41.40;;;;;;4997381;28;20075;-68
2022/03/21 12:25:17;;;;;;;21.02;16.42;;;23.90;41.80;;;;;;5006680;28;20077;-68
2022/03/21 12:27:45;;;;;;;19.42;16.85;;;23.60;41.00;;;;;;5001470;28;20409;-68
2022/03/21 12:32:54;;;;;;;20.45;17.80;;;23.70;41.50;;;;;;5001541;28;20543;-68
2022/03/21 12:35:32;;;;;;;24.85;18.35;;;23.90;40.90;;;;;;5006477;28;20469;-68
2022/03/21 12:38:03;;;;;;;19.67;17.52;;;23.90;40.10;;;;;;5003034;28;20414;-68
2022/03/21 12:40:30;;;;;;;24.52;18.58;;;24.00;40.90;;;;;;5029206;28;20137;-67
2022/03/21 12:43:00;;;;;;;20.42;18.25;;;24.10;41.20;;;;;;5005779;28;20481;-68
2022/03/21 12:45:29;;;;;;;20.23;18.13;;;24.00;41.20;;;;;;5001192;28;20045;-68
2022/03/21 12:48:07;;;;;;;21.35;18.48;;;23.90;40.40;;;;;;4999012;28;20084;-68
2022/03/21 12:50:34;;;;;;;23.77;18.00;;;23.70;41.30;;;;;;5028142;28;20089;-68
2022/03/21 12:53:06;;;;;;;23.58;18.58;;;23.70;40.90;;;;;;5001268;28;20041;-68
2022/03/21 12:55:33;;;;;;;23.33;17.85;;;24.00;40.60;;;;;;5030371;28;20367;-68
2022/03/21 12:58:02;;;;;;;20.30;17.27;;;24.20;40.20;;;;;;5005784;28;20064;-68
2022/03/21 13:00:37;;;;;;;21.15;17.52;;;24.20;40.50;;;;;;5036307;28;20045;-68